Sakhon Nakhon, Thailand
Current Conditions -  °F | °C
As of 1:00 PM on Sunday 26 Oct 2014 (Local Time) from VTUI Reporting Station
Scattered Clouds Scattered Clouds  
Wind Chill: 91°   Ceiling: Unl
Heat Index: 97°   Visibility: 6mi
Dew Point: 70°   Wind: 5mph
Humidity: 49%   Direction: 60°ENE
Pressure: 29.91"   Gusts: NA
Location:  17.17°N, 104.15°E
Report Text: VTUI 260600Z 06004KT 9999 SCT025 33/21 Q1013 A2992RWY05 INFO H
Loading
Personal Weather Stations






























Interactive Weather Map
Tropical Storm Tracking
New forecast layout! Learn more

10-Day Weather Forecast

Advertisements
Track Severe Weather on mobile